Pitts, Georgia
Current Conditions -  °F | °C
As of 8:15 PM on Monday 22 Dec 2014 (Local Time) from KCKF Reporting Station
Drizzle Drizzle  
Wind Chill: 53°   Ceiling: 300
Heat Index: 53°   Visibility: 1.7mi
Dew Point: 52°   Wind: 5mph
Humidity: 96%   Direction: 70°ENE
Pressure: 29.93"   Gusts: NA
Location:  31.94°N, 83.54°W
Report Text: KCKF 230115Z AUTO 07004KT 1 3/4SM -DZ OVC003 12/11 A2993 RMK AO2 LTG DSNT SE T01160110
Loading
Personal Weather Stations






























Interactive Weather Map New forecast layout! Learn more

10-Day Weather Forecast

Advertisements
Track Severe Weather on mobile